sensor_id;sensor_type;location;lat;lon;timestamp;pressure;altitude;pressure_sealevel;temperature;humidity
76847;BME280;65813;49.546;8.644;2023-06-19T00:02:13;99949.97;;;24.28;39.70
76847;BME280;65813;49.546;8.644;2023-06-19T00:06:13;99953.34;;;24.30;39.58
76847;BME280;65813;49.546;8.644;2023-06-19T00:10:13;99957.97;;;24.16;41.09
76847;BME280;65813;49.546;8.644;2023-06-19T00:14:14;99956.69;;;24.19;41.07
76847;BME280;65813;49.546;8.644;2023-06-19T00:18:14;99955.41;;;24.08;41.77
76847;BME280;65813;49.546;8.644;2023-06-19T00:22:16;99953.31;;;23.90;42.22
76847;BME280;65813;49.546;8.644;2023-06-19T00:26:16;99951.00;;;24.07;41.85
76847;BME280;65813;49.546;8.644;2023-06-19T00:30:17;99954.16;;;24.04;41.49
76847;BME280;65813;49.546;8.644;2023-06-19T00:34:18;99960.03;;;23.88;41.64
76847;BME280;65813;49.546;8.644;2023-06-19T00:38:18;99966.31;;;24.08;41.73
76847;BME280;65813;49.546;8.644;2023-06-19T00:42:18;99965.03;;;24.10;40.82
76847;BME280;65813;49.546;8.644;2023-06-19T00:46:18;99968.19;;;23.88;41.62
76847;BME280;65813;49.546;8.644;2023-06-19T00:50:20;99967.97;;;23.76;41.34
76847;BME280;65813;49.546;8.644;2023-06-19T00:54:21;99976.13;;;23.63;41.87
76847;BME280;65813;49.546;8.644;2023-06-19T00:58:22;99987.59;;;23.58;41.82
76847;BME280;65813;49.546;8.644;2023-06-19T01:02:22;99984.09;;;23.64;41.20
76847;BME280;65813;49.546;8.644;2023-06-19T01:06:27;99995.13;;;23.50;41.75
76847;BME280;65813;49.546;8.644;2023-06-19T01:10:33;99988.25;;;23.67;41.70
76847;BME280;65813;49.546;8.644;2023-06-19T01:14:38;99985.97;;;23.64;40.92
76847;BME280;65813;49.546;8.644;2023-06-19T01:18:40;99973.41;;;23.63;41.64
76847;BME280;65813;49.546;8.644;2023-06-19T01:22:40;99989.41;;;23.38;42.45
76847;BME280;65813;49.546;8.644;2023-06-19T01:26:44;99995.06;;;23.37;42.46
76847;BME280;65813;49.546;8.644;2023-06-19T01:30:45;99999.97;;;23.54;41.71
76847;BME280;65813;49.546;8.644;2023-06-19T01:34:47;100038.34;;;23.32;42.24
76847;BME280;65813;49.546;8.644;2023-06-19T01:38:48;100035.56;;;23.19;43.31
76847;BME280;65813;49.546;8.644;2023-06-19T01:42:50;100028.16;;;22.99;45.23
76847;BME280;65813;49.546;8.644;2023-06-19T01:46:51;100022.38;;;23.15;46.84
76847;BME280;65813;49.546;8.644;2023-06-19T01:50:52;100033.81;;;23.04;46.99
76847;BME280;65813;49.546;8.644;2023-06-19T01:54:52;100051.00;;;23.11;47.12
76847;BME280;65813;49.546;8.644;2023-06-19T01:58:53;100059.06;;;23.33;47.37
76847;BME280;65813;49.546;8.644;2023-06-19T02:02:55;100061.66;;;23.06;49.08
76847;BME280;65813;49.546;8.644;2023-06-19T02:06:55;100062.22;;;22.95;49.98
76847;BME280;65813;49.546;8.644;2023-06-19T02:10:56;100068.28;;;22.97;49.89
76847;BME280;65813;49.546;8.644;2023-06-19T02:14:56;100064.72;;;22.97;49.48
76847;BME280;65813;49.546;8.644;2023-06-19T02:18:56;100064.13;;;23.01;49.52
76847;BME280;65813;49.546;8.644;2023-06-19T02:22:57;100067.41;;;22.90;49.75
76847;BME280;65813;49.546;8.644;2023-06-19T02:26:57;100067.63;;;22.89;49.81
76847;BME280;65813;49.546;8.644;2023-06-19T02:30:58;100068.06;;;22.92;50.26
76847;BME280;65813;49.546;8.644;2023-06-19T02:34:59;100067.66;;;22.95;50.28
76847;BME280;65813;49.546;8.644;2023-06-19T02:38:59;100071.66;;;22.99;49.60
76847;BME280;65813;49.546;8.644;2023-06-19T02:43:00;100086.41;;;22.90;50.60
76847;BME280;65813;49.546;8.644;2023-06-19T02:47:00;100086.25;;;22.98;50.26
76847;BME280;65813;49.546;8.644;2023-06-19T02:51:00;100081.78;;;22.84;51.12
76847;BME280;65813;49.546;8.644;2023-06-19T02:55:01;100094.56;;;22.90;50.92
76847;BME280;65813;49.546;8.644;2023-06-19T02:59:01;100098.81;;;22.99;50.63
76847;BME280;65813;49.546;8.644;2023-06-19T03:03:01;100127.81;;;22.92;51.41
76847;BME280;65813;49.546;8.644;2023-06-19T03:07:02;100135.59;;;22.95;51.45
76847;BME280;65813;49.546;8.644;2023-06-19T03:11:03;100138.97;;;22.55;53.02
76847;BME280;65813;49.546;8.644;2023-06-19T03:15:05;100119.19;;;22.82;52.21
76847;BME280;65813;49.546;8.644;2023-06-19T03:19:06;100155.28;;;22.76;53.09
76847;BME280;65813;49.546;8.644;2023-06-19T03:23:06;100162.22;;;22.79;53.90
76847;BME280;65813;49.546;8.644;2023-06-19T03:27:06;100155.53;;;22.60;54.13
76847;BME280;65813;49.546;8.644;2023-06-19T03:31:06;100163.19;;;22.71;53.69
76847;BME280;65813;49.546;8.644;2023-06-19T03:35:07;100165.16;;;22.41;54.72
76847;BME280;65813;49.546;8.644;2023-06-19T03:39:08;100169.97;;;22.39;55.56
76847;BME280;65813;49.546;8.644;2023-06-19T03:43:08;100188.47;;;22.14;57.43
76847;BME280;65813;49.546;8.644;2023-06-19T03:47:08;100192.22;;;22.13;57.49
76847;BME280;65813;49.546;8.644;2023-06-19T03:51:09;100192.31;;;22.20;58.74
76847;BME280;65813;49.546;8.644;2023-06-19T03:55:09;100207.69;;;22.13;59.06
76847;BME280;65813;49.546;8.644;2023-06-19T03:59:09;100212.41;;;22.26;58.87
76847;BME280;65813;49.546;8.644;2023-06-19T04:03:10;100206.94;;;22.04;60.14
76847;BME280;65813;49.546;8.644;2023-06-19T04:07:10;100209.28;;;22.07;59.46
76847;BME280;65813;49.546;8.644;2023-06-19T04:11:10;100194.94;;;22.13;59.76
76847;BME280;65813;49.546;8.644;2023-06-19T04:15:11;100209.28;;;22.07;58.35
76847;BME280;65813;49.546;8.644;2023-06-19T04:19:11;100214.13;;;22.12;57.64
76847;BME280;65813;49.546;8.644;2023-06-19T04:23:11;100220.66;;;22.17;58.92
76847;BME280;65813;49.546;8.644;2023-06-19T04:27:12;100218.81;;;22.03;60.27
76847;BME280;65813;49.546;8.644;2023-06-19T04:31:13;100214.16;;;21.97;59.37
76847;BME280;65813;49.546;8.644;2023-06-19T04:35:18;100231.38;;;22.04;59.74
76847;BME280;65813;49.546;8.644;2023-06-19T04:39:18;100237.25;;;22.08;58.17
76847;BME280;65813;49.546;8.644;2023-06-19T04:43:19;100244.00;;;22.12;58.40
76847;BME280;65813;49.546;8.644;2023-06-19T04:47:21;100244.16;;;22.10;58.88
76847;BME280;65813;49.546;8.644;2023-06-19T04:51:22;100242.22;;;22.04;60.19
76847;BME280;65813;49.546;8.644;2023-06-19T04:55:23;100241.91;;;22.14;59.73
76847;BME280;65813;49.546;8.644;2023-06-19T04:59:25;100249.13;;;22.07;60.38
76847;BME280;65813;49.546;8.644;2023-06-19T05:03:26;100248.19;;;22.14;60.64
76847;BME280;65813;49.546;8.644;2023-06-19T05:07:26;100245.94;;;22.18;59.97
76847;BME280;65813;49.546;8.644;2023-06-19T05:11:26;100251.88;;;22.43;58.11
76847;BME280;65813;49.546;8.644;2023-06-19T05:15:27;100246.56;;;22.56;57.29
76847;BME280;65813;49.546;8.644;2023-06-19T05:19:28;100246.72;;;22.69;57.31
76847;BME280;65813;49.546;8.644;2023-06-19T05:23:28;100246.59;;;22.77;57.40
76847;BME280;65813;49.546;8.644;2023-06-19T05:27:28;100243.38;;;22.67;57.55
76847;BME280;65813;49.546;8.644;2023-06-19T05:31:29;100249.78;;;22.81;57.07
76847;BME280;65813;49.546;8.644;2023-06-19T05:35:29;100251.00;;;22.78;57.14
76847;BME280;65813;49.546;8.644;2023-06-19T05:39:30;100251.00;;;22.78;56.99
76847;BME280;65813;49.546;8.644;2023-06-19T05:43:30;100248.88;;;22.74;58.29
76847;BME280;65813;49.546;8.644;2023-06-19T05:47:32;100246.84;;;22.61;59.37
76847;BME280;65813;49.546;8.644;2023-06-19T05:51:32;100255.09;;;22.53;58.78
76847;BME280;65813;49.546;8.644;2023-06-19T05:55:32;100249.78;;;22.45;60.22
76847;BME280;65813;49.546;8.644;2023-06-19T05:59:33;100266.66;;;22.40;60.62
76847;BME280;65813;49.546;8.644;2023-06-19T06:03:33;100276.81;;;22.53;60.26
76847;BME280;65813;49.546;8.644;2023-06-19T06:07:34;100276.81;;;22.53;60.29
76847;BME280;65813;49.546;8.644;2023-06-19T06:11:34;100277.78;;;22.45;60.66
76847;BME280;65813;49.546;8.644;2023-06-19T06:15:34;100270.75;;;22.51;60.72
76847;BME280;65813;49.546;8.644;2023-06-19T06:19:35;100264.56;;;22.57;60.72
76847;BME280;65813;49.546;8.644;2023-06-19T06:23:37;100276.41;;;22.35;62.09
76847;BME280;65813;49.546;8.644;2023-06-19T06:27:37;100272.28;;;22.39;61.05
76847;BME280;65813;49.546;8.644;2023-06-19T06:31:38;100267.66;;;22.54;60.97
76847;BME280;65813;49.546;8.644;2023-06-19T06:35:39;100271.84;;;22.71;58.62
76847;BME280;65813;49.546;8.644;2023-06-19T06:39:39;100265.91;;;22.82;60.32
76847;BME280;65813;49.546;8.644;2023-06-19T06:43:40;100264.00;;;22.83;59.45
76847;BME280;65813;49.546;8.644;2023-06-19T06:47:42;100262.84;;;22.92;59.58
76847;BME280;65813;49.546;8.644;2023-06-19T06:51:43;100268.47;;;22.90;59.76
76847;BME280;65813;49.546;8.644;2023-06-19T06:55:43;100263.81;;;23.05;59.19
76847;BME280;65813;49.546;8.644;2023-06-19T06:59:44;100267.31;;;22.99;59.14
76847;BME280;65813;49.546;8.644;2023-06-19T07:03:44;100279.06;;;23.06;59.58
76847;BME280;65813;49.546;8.644;2023-06-19T07:07:44;100270.38;;;23.17;59.04
76847;BME280;65813;49.546;8.644;2023-06-19T07:11:45;100283.38;;;23.22;58.96
76847;BME280;65813;49.546;8.644;2023-06-19T07:15:45;100281.75;;;23.28;59.11
76847;BME280;65813;49.546;8.644;2023-06-19T07:19:45;100287.72;;;23.17;58.63
76847;BME280;65813;49.546;8.644;2023-06-19T07:23:46;100285.59;;;23.12;59.10
76847;BME280;65813;49.546;8.644;2023-06-19T07:27:48;100294.06;;;23.24;58.57
76847;BME280;65813;49.546;8.644;2023-06-19T07:31:48;100302.22;;;23.24;58.49
76847;BME280;65813;49.546;8.644;2023-06-19T07:35:48;100304.94;;;23.24;59.63
76847;BME280;65813;49.546;8.644;2023-06-19T07:39:50;100303.31;;;23.29;58.60
76847;BME280;65813;49.546;8.644;2023-06-19T07:43:50;100305.56;;;23.47;58.52
76847;BME280;65813;49.546;8.644;2023-06-19T07:47:55;100310.66;;;23.56;56.83
76847;BME280;65813;49.546;8.644;2023-06-19T07:51:55;100315.50;;;23.61;58.60
76847;BME280;65813;49.546;8.644;2023-06-19T07:55:56;100317.88;;;23.71;58.17
76847;BME280;65813;49.546;8.644;2023-06-19T07:59:56;100313.75;;;23.81;57.29
76847;BME280;65813;49.546;8.644;2023-06-19T08:03:56;100320.31;;;23.93;58.00
76847;BME280;65813;49.546;8.644;2023-06-19T08:07:58;100334.09;;;23.85;57.39
76847;BME280;65813;49.546;8.644;2023-06-19T08:11:59;100348.41;;;24.00;57.33
76847;BME280;65813;49.546;8.644;2023-06-19T08:15:59;100337.03;;;23.90;57.56
76847;BME280;65813;49.546;8.644;2023-06-19T08:20:00;100354.16;;;24.12;57.20
76847;BME280;65813;49.546;8.644;2023-06-19T08:24:00;100352.97;;;24.21;57.32
76847;BME280;65813;49.546;8.644;2023-06-19T08:28:00;100341.78;;;24.44;57.51
76847;BME280;65813;49.546;8.644;2023-06-19T08:32:01;100345.53;;;24.43;56.36
76847;BME280;65813;49.546;8.644;2023-06-19T08:36:02;100354.41;;;24.58;55.50
76847;BME280;65813;49.546;8.644;2023-06-19T08:40:03;100355.59;;;24.42;56.61
76847;BME280;65813;49.546;8.644;2023-06-19T08:44:09;100347.69;;;24.60;56.11
76847;BME280;65813;49.546;8.644;2023-06-19T08:48:13;100351.59;;;24.86;55.31
76847;BME280;65813;49.546;8.644;2023-06-19T08:52:13;100343.66;;;25.10;54.87
76847;BME280;65813;49.546;8.644;2023-06-19T08:56:14;100355.63;;;25.49;54.40
76847;BME280;65813;49.546;8.644;2023-06-19T09:00:26;100350.84;;;25.64;52.77
76847;BME280;65813;49.546;8.644;2023-06-19T09:04:28;100351.25;;;25.81;52.50
76847;BME280;65813;49.546;8.644;2023-06-19T09:08:28;100351.47;;;25.92;52.81
76847;BME280;65813;49.546;8.644;2023-06-19T09:12:29;100357.13;;;25.84;51.72
76847;BME280;65813;49.546;8.644;2023-06-19T09:16:39;100362.78;;;25.83;53.04
76847;BME280;65813;49.546;8.644;2023-06-19T09:20:41;100350.84;;;25.77;53.56
76847;BME280;65813;49.546;8.644;2023-06-19T09:24:44;100357.56;;;25.75;52.54
76847;BME280;65813;49.546;8.644;2023-06-19T09:28:44;100354.78;;;26.01;50.96
76847;BME280;65813;49.546;8.644;2023-06-19T09:32:45;100351.44;;;25.99;52.44
76847;BME280;65813;49.546;8.644;2023-06-19T09:36:45;100336.50;;;26.08;52.34
76847;BME280;65813;49.546;8.644;2023-06-19T09:40:47;100346.34;;;26.16;52.27
76847;BME280;65813;49.546;8.644;2023-06-19T09:44:48;100348.06;;;25.90;52.05
76847;BME280;65813;49.546;8.644;2023-06-19T09:48:51;100345.31;;;26.03;52.40
76847;BME280;65813;49.546;8.644;2023-06-19T09:52:55;100350.38;;;25.93;52.12
76847;BME280;65813;49.546;8.644;2023-06-19T09:56:56;100350.97;;;26.28;50.87
76847;BME280;65813;49.546;8.644;2023-06-19T10:00:58;100351.28;;;26.58;50.91
76847;BME280;65813;49.546;8.644;2023-06-19T10:04:59;100336.22;;;26.80;49.50
76847;BME280;65813;49.546;8.644;2023-06-19T10:09:09;100349.47;;;26.83;49.29
76847;BME280;65813;49.546;8.644;2023-06-19T10:13:15;100352.56;;;26.93;49.58
76847;BME280;65813;49.546;8.644;2023-06-19T10:17:18;100340.38;;;26.96;49.11
76847;BME280;65813;49.546;8.644;2023-06-19T10:21:20;100342.66;;;26.99;48.83
76847;BME280;65813;49.546;8.644;2023-06-19T10:25:22;100339.50;;;27.02;48.49
76847;BME280;65813;49.546;8.644;2023-06-19T10:29:22;100331.59;;;27.19;48.37
76847;BME280;65813;49.546;8.644;2023-06-19T10:33:25;100334.72;;;27.22;47.67
76847;BME280;65813;49.546;8.644;2023-06-19T10:37:32;100326.09;;;27.50;47.76
76847;BME280;65813;49.546;8.644;2023-06-19T10:41:33;100317.16;;;27.79;46.68
76847;BME280;65813;49.546;8.644;2023-06-19T10:45:33;100315.91;;;27.82;45.32
76847;BME280;65813;49.546;8.644;2023-06-19T10:49:34;100315.09;;;27.99;46.59
76847;BME280;65813;49.546;8.644;2023-06-19T10:53:36;100316.22;;;28.10;44.78
76847;BME280;65813;49.546;8.644;2023-06-19T10:57:37;100304.22;;;28.11;46.71
76847;BME280;65813;49.546;8.644;2023-06-19T11:01:39;100303.75;;;28.32;46.80
76847;BME280;65813;49.546;8.644;2023-06-19T11:05:43;100294.66;;;28.50;44.09
76847;BME280;65813;49.546;8.644;2023-06-19T11:09:44;100290.84;;;28.99;43.65
76847;BME280;65813;49.546;8.644;2023-06-19T11:13:44;100285.63;;;28.79;43.15
76847;BME280;65813;49.546;8.644;2023-06-19T11:17:45;100290.75;;;28.76;43.01
76847;BME280;65813;49.546;8.644;2023-06-19T11:21:47;100282.28;;;28.77;43.62
76847;BME280;65813;49.546;8.644;2023-06-19T11:25:48;100280.00;;;29.16;42.81
76847;BME280;65813;49.546;8.644;2023-06-19T11:29:55;100261.28;;;29.13;42.97
76847;BME280;65813;49.546;8.644;2023-06-19T11:33:58;100266.31;;;28.86;41.64
76847;BME280;65813;49.546;8.644;2023-06-19T11:37:58;100261.97;;;28.37;42.63
76847;BME280;65813;49.546;8.644;2023-06-19T11:41:59;100264.06;;;28.35;46.16
76847;BME280;65813;49.546;8.644;2023-06-19T11:46:04;100260.50;;;28.34;43.95
76847;BME280;65813;49.546;8.644;2023-06-19T11:50:05;100258.84;;;28.63;42.96
76847;BME280;65813;49.546;8.644;2023-06-19T11:54:08;100245.69;;;28.83;43.08
76847;BME280;65813;49.546;8.644;2023-06-19T11:58:09;100250.88;;;29.15;40.93
76847;BME280;65813;49.546;8.644;2023-06-19T12:02:10;100258.56;;;29.36;42.15
76847;BME280;65813;49.546;8.644;2023-06-19T12:06:10;100248.19;;;29.38;40.68
76847;BME280;65813;49.546;8.644;2023-06-19T12:10:11;100244.59;;;29.49;41.89
76847;BME280;65813;49.546;8.644;2023-06-19T12:14:12;100244.72;;;29.66;39.84
76847;BME280;65813;49.546;8.644;2023-06-19T12:18:13;100255.19;;;29.22;40.54
76847;BME280;65813;49.546;8.644;2023-06-19T12:22:14;100248.13;;;29.15;40.89
76847;BME280;65813;49.546;8.644;2023-06-19T12:26:14;100246.94;;;29.10;41.35
76847;BME280;65813;49.546;8.644;2023-06-19T12:30:14;100243.56;;;28.85;41.32
76847;BME280;65813;49.546;8.644;2023-06-19T12:34:15;100250.44;;;28.76;42.02
76847;BME280;65813;49.546;8.644;2023-06-19T12:38:17;100240.03;;;28.67;42.60
76847;BME280;65813;49.546;8.644;2023-06-19T12:42:18;100243.41;;;28.80;42.55
76847;BME280;65813;49.546;8.644;2023-06-19T12:46:18;100240.69;;;28.80;42.42
76847;BME280;65813;49.546;8.644;2023-06-19T12:50:19;100246.31;;;28.97;42.13
76847;BME280;65813;49.546;8.644;2023-06-19T12:54:19;100234.06;;;28.99;42.14
76847;BME280;65813;49.546;8.644;2023-06-19T12:58:20;100230.28;;;29.35;42.04
76847;BME280;65813;49.546;8.644;2023-06-19T13:02:20;100228.84;;;29.33;40.53
76847;BME280;65813;49.546;8.644;2023-06-19T13:06:20;100223.00;;;29.52;41.80
76847;BME280;65813;49.546;8.644;2023-06-19T13:10:21;100221.19;;;29.35;41.37
76847;BME280;65813;49.546;8.644;2023-06-19T13:14:21;100226.22;;;29.61;41.33
76847;BME280;65813;49.546;8.644;2023-06-19T13:18:21;100228.97;;;29.61;41.78
76847;BME280;65813;49.546;8.644;2023-06-19T13:22:22;100227.00;;;29.96;40.26
76847;BME280;65813;49.546;8.644;2023-06-19T13:26:22;100227.31;;;30.23;40.29
76847;BME280;65813;49.546;8.644;2023-06-19T13:30:22;100224.41;;;30.30;40.18
76847;BME280;65813;49.546;8.644;2023-06-19T13:34:23;100219.34;;;30.67;38.93
76847;BME280;65813;49.546;8.644;2023-06-19T13:38:23;100222.91;;;30.39;38.93
76847;BME280;65813;49.546;8.644;2023-06-19T13:42:24;100207.56;;;30.26;39.14
76847;BME280;65813;49.546;8.644;2023-06-19T13:46:24;100207.78;;;30.25;37.89
76847;BME280;65813;49.546;8.644;2023-06-19T13:50:25;100204.16;;;30.07;38.95
76847;BME280;65813;49.546;8.644;2023-06-19T13:54:25;100192.88;;;29.69;39.71
76847;BME280;65813;49.546;8.644;2023-06-19T13:58:26;100190.72;;;29.71;39.49
76847;BME280;65813;49.546;8.644;2023-06-19T14:02:26;100188.63;;;29.50;40.33
76847;BME280;65813;49.546;8.644;2023-06-19T14:06:27;100187.31;;;29.41;40.46
76847;BME280;65813;49.546;8.644;2023-06-19T14:10:27;100176.09;;;29.31;40.63
76847;BME280;65813;49.546;8.644;2023-06-19T14:14:27;100177.94;;;29.65;39.94
76847;BME280;65813;49.546;8.644;2023-06-19T14:18:28;100173.13;;;29.44;41.34
76847;BME280;65813;49.546;8.644;2023-06-19T14:22:28;100170.25;;;29.39;41.31
76847;BME280;65813;49.546;8.644;2023-06-19T14:26:31;100161.50;;;29.19;40.49
76847;BME280;65813;49.546;8.644;2023-06-19T14:30:32;100161.66;;;29.24;40.78
76847;BME280;65813;49.546;8.644;2023-06-19T14:34:32;100164.03;;;29.08;40.66
76847;BME280;65813;49.546;8.644;2023-06-19T14:38:33;100154.34;;;28.94;41.44
76847;BME280;65813;49.546;8.644;2023-06-19T14:42:33;100156.81;;;28.73;41.89
76847;BME280;65813;49.546;8.644;2023-06-19T14:46:34;100157.72;;;28.55;42.80
76847;BME280;65813;49.546;8.644;2023-06-19T14:50:39;100153.75;;;28.92;42.33
76847;BME280;65813;49.546;8.644;2023-06-19T14:54:39;100149.44;;;28.96;42.76
76847;BME280;65813;49.546;8.644;2023-06-19T14:58:39;100149.34;;;29.15;42.19
76847;BME280;65813;49.546;8.644;2023-06-19T15:02:40;100141.44;;;29.53;41.68
76847;BME280;65813;49.546;8.644;2023-06-19T15:06:40;100149.81;;;29.46;40.55
76847;BME280;65813;49.546;8.644;2023-06-19T15:10:41;100144.06;;;29.48;40.83
76847;BME280;65813;49.546;8.644;2023-06-19T15:14:41;100143.38;;;29.06;40.81
76847;BME280;65813;49.546;8.644;2023-06-19T15:18:43;100145.53;;;28.92;41.02
76847;BME280;65813;49.546;8.644;2023-06-19T15:22:43;100144.09;;;29.01;40.95
76847;BME280;65813;49.546;8.644;2023-06-19T15:26:44;100147.41;;;29.03;40.56
76847;BME280;65813;49.546;8.644;2023-06-19T15:30:44;100140.31;;;29.26;41.25
76847;BME280;65813;49.546;8.644;2023-06-19T15:34:44;100133.50;;;29.28;40.74
76847;BME280;65813;49.546;8.644;2023-06-19T15:38:45;100129.91;;;29.04;41.48
76847;BME280;65813;49.546;8.644;2023-06-19T15:42:45;100132.50;;;29.23;40.07
76847;BME280;65813;49.546;8.644;2023-06-19T15:46:45;100122.16;;;29.13;41.10
76847;BME280;65813;49.546;8.644;2023-06-19T15:50:46;100130.16;;;29.03;41.16
76847;BME280;65813;49.546;8.644;2023-06-19T15:54:46;100118.81;;;28.88;41.96
76847;BME280;65813;49.546;8.644;2023-06-19T15:58:47;100112.84;;;28.91;40.67
76847;BME280;65813;49.546;8.644;2023-06-19T16:02:48;100098.75;;;29.10;42.49
76847;BME280;65813;49.546;8.644;2023-06-19T16:06:49;100097.88;;;29.45;42.38
76847;BME280;65813;49.546;8.644;2023-06-19T16:10:49;100096.69;;;29.52;40.60
76847;BME280;65813;49.546;8.644;2023-06-19T16:14:50;100098.94;;;29.55;40.99
76847;BME280;65813;49.546;8.644;2023-06-19T16:18:50;100096.88;;;29.63;41.00
76847;BME280;65813;49.546;8.644;2023-06-19T16:22:50;100093.91;;;29.64;40.59
76847;BME280;65813;49.546;8.644;2023-06-19T16:26:51;100093.09;;;29.52;40.87
76847;BME280;65813;49.546;8.644;2023-06-19T16:30:51;100097.66;;;29.35;40.96
76847;BME280;65813;49.546;8.644;2023-06-19T16:34:52;100086.56;;;29.41;40.03
76847;BME280;65813;49.546;8.644;2023-06-19T16:38:52;100092.66;;;29.32;40.68
76847;BME280;65813;49.546;8.644;2023-06-19T16:42:53;100086.03;;;29.56;39.93
76847;BME280;65813;49.546;8.644;2023-06-19T16:46:54;100087.38;;;29.42;40.37
76847;BME280;65813;49.546;8.644;2023-06-19T16:50:54;100090.91;;;29.26;41.03
76847;BME280;65813;49.546;8.644;2023-06-19T16:54:54;100079.94;;;29.02;40.74
76847;BME280;65813;49.546;8.644;2023-06-19T16:58:55;100092.06;;;29.06;41.87
76847;BME280;65813;49.546;8.644;2023-06-19T17:02:55;100083.13;;;28.76;41.30
76847;BME280;65813;49.546;8.644;2023-06-19T17:06:56;100102.47;;;28.81;41.71
76847;BME280;65813;49.546;8.644;2023-06-19T17:10:58;100098.41;;;28.84;41.59
76847;BME280;65813;49.546;8.644;2023-06-19T17:15:01;100095.06;;;28.82;41.70
76847;BME280;65813;49.546;8.644;2023-06-19T17:19:01;100099.47;;;28.83;42.11
76847;BME280;65813;49.546;8.644;2023-06-19T17:23:03;100097.09;;;28.86;41.62
76847;BME280;65813;49.546;8.644;2023-06-19T17:27:04;100102.06;;;28.66;41.68
76847;BME280;65813;49.546;8.644;2023-06-19T17:31:04;100094.09;;;28.65;42.52
76847;BME280;65813;49.546;8.644;2023-06-19T17:35:07;100094.31;;;28.63;42.42
76847;BME280;65813;49.546;8.644;2023-06-19T17:39:09;100091.25;;;28.83;41.77
76847;BME280;65813;49.546;8.644;2023-06-19T17:43:09;100087.31;;;28.67;42.06
76847;BME280;65813;49.546;8.644;2023-06-19T17:47:09;100088.25;;;28.61;42.75
76847;BME280;65813;49.546;8.644;2023-06-19T17:51:10;100089.16;;;28.55;42.78
76847;BME280;65813;49.546;8.644;2023-06-19T17:55:10;100100.00;;;28.38;44.08
76847;BME280;65813;49.546;8.644;2023-06-19T17:59:11;100102.38;;;28.35;43.66
76847;BME280;65813;49.546;8.644;2023-06-19T18:03:13;100112.75;;;28.33;43.89
76847;BME280;65813;49.546;8.644;2023-06-19T18:07:13;100100.72;;;28.34;43.72
76847;BME280;65813;49.546;8.644;2023-06-19T18:11:15;100102.72;;;28.38;43.92
76847;BME280;65813;49.546;8.644;2023-06-19T18:15:15;100109.84;;;28.28;44.55
76847;BME280;65813;49.546;8.644;2023-06-19T18:19:16;100098.16;;;28.21;44.46
76847;BME280;65813;49.546;8.644;2023-06-19T18:23:16;100092.69;;;28.21;44.39
76847;BME280;65813;49.546;8.644;2023-06-19T18:27:16;100094.50;;;28.27;43.59
76847;BME280;65813;49.546;8.644;2023-06-19T18:31:18;100098.72;;;28.11;44.48
76847;BME280;65813;49.546;8.644;2023-06-19T18:35:18;100099.84;;;28.22;43.50
76847;BME280;65813;49.546;8.644;2023-06-19T18:39:19;100090.59;;;28.04;43.96
76847;BME280;65813;49.546;8.644;2023-06-19T18:43:19;100089.09;;;28.08;43.34
76847;BME280;65813;49.546;8.644;2023-06-19T18:47:20;100090.97;;;28.08;43.81
76847;BME280;65813;49.546;8.644;2023-06-19T18:51:20;100098.91;;;27.98;43.99
76847;BME280;65813;49.546;8.644;2023-06-19T18:55:21;100095.06;;;27.69;46.14
76847;BME280;65813;49.546;8.644;2023-06-19T18:59:21;100084.94;;;27.58;47.19
76847;BME280;65813;49.546;8.644;2023-06-19T19:03:22;100091.59;;;27.44;47.87
76847;BME280;65813;49.546;8.644;2023-06-19T19:07:22;100093.41;;;27.32;48.33
76847;BME280;65813;49.546;8.644;2023-06-19T19:11:23;100095.34;;;27.49;47.69
76847;BME280;65813;49.546;8.644;2023-06-19T19:15:23;100099.50;;;27.34;48.53
76847;BME280;65813;49.546;8.644;2023-06-19T19:19:24;100101.38;;;27.15;49.25
76847;BME280;65813;49.546;8.644;2023-06-19T19:23:24;100092.31;;;26.96;50.20
76847;BME280;65813;49.546;8.644;2023-06-19T19:27:25;100098.41;;;26.74;51.56
76847;BME280;65813;49.546;8.644;2023-06-19T19:31:25;100101.72;;;26.57;52.00
76847;BME280;65813;49.546;8.644;2023-06-19T19:35:25;100108.28;;;26.50;52.66
76847;BME280;65813;49.546;8.644;2023-06-19T19:39:26;100118.66;;;26.41;52.44
76847;BME280;65813;49.546;8.644;2023-06-19T19:43:26;100117.84;;;26.41;52.23
76847;BME280;65813;49.546;8.644;2023-06-19T19:47:27;100121.13;;;26.18;53.18
76847;BME280;65813;49.546;8.644;2023-06-19T19:51:27;100127.28;;;26.00;53.59
76847;BME280;65813;49.546;8.644;2023-06-19T19:55:27;100135.56;;;25.87;54.24
76847;BME280;65813;49.546;8.644;2023-06-19T19:59:28;100138.56;;;25.73;54.23
76847;BME280;65813;49.546;8.644;2023-06-19T20:03:28;100134.25;;;25.52;55.42
76847;BME280;65813;49.546;8.644;2023-06-19T20:07:28;100137.41;;;25.42;55.39
76847;BME280;65813;49.546;8.644;2023-06-19T20:11:29;100142.00;;;25.42;55.10
76847;BME280;65813;49.546;8.644;2023-06-19T20:15:29;100149.31;;;25.48;55.33
76847;BME280;65813;49.546;8.644;2023-06-19T20:19:29;100134.88;;;25.54;55.06
76847;BME280;65813;49.546;8.644;2023-06-19T20:23:30;100134.25;;;25.39;54.71
76847;BME280;65813;49.546;8.644;2023-06-19T20:27:30;100146.25;;;25.25;54.86
76847;BME280;65813;49.546;8.644;2023-06-19T20:31:30;100143.34;;;25.20;55.67
76847;BME280;65813;49.546;8.644;2023-06-19T20:35:31;100146.09;;;25.13;55.83
76847;BME280;65813;49.546;8.644;2023-06-19T20:39:31;100142.09;;;24.63;57.01
76847;BME280;65813;49.546;8.644;2023-06-19T20:43:31;100137.06;;;24.60;56.82
76847;BME280;65813;49.546;8.644;2023-06-19T20:47:32;100138.94;;;24.66;56.54
76847;BME280;65813;49.546;8.644;2023-06-19T20:51:33;100133.31;;;24.61;55.98
76847;BME280;65813;49.546;8.644;2023-06-19T20:55:33;100136.44;;;24.71;55.90
76847;BME280;65813;49.546;8.644;2023-06-19T21:04:30;100136.84;;;24.48;56.52